sensor_id;sensor_type;location;lat;lon;timestamp;P1;durP1;ratioP1;P2;durP2;ratioP2
6243;SDS011;3155;49.940;8.450;2023-03-20T00:02:06;0.40;;;0.40;;
6243;SDS011;3155;49.940;8.450;2023-03-20T00:04:33;3.30;;;0.60;;
6243;SDS011;3155;49.940;8.450;2023-03-20T00:07:00;0.32;;;0.32;;
6243;SDS011;3155;49.940;8.450;2023-03-20T00:09:27;0.20;;;0.20;;
6243;SDS011;3155;49.940;8.450;2023-03-20T00:11:53;0.65;;;0.50;;
6243;SDS011;3155;49.940;8.450;2023-03-20T00:14:21;0.53;;;0.53;;
6243;SDS011;3155;49.940;8.450;2023-03-20T00:16:50;0.43;;;0.43;;
6243;SDS011;3155;49.940;8.450;2023-03-20T00:19:18;0.30;;;0.30;;
6243;SDS011;3155;49.940;8.450;2023-03-20T00:21:48;0.40;;;0.30;;
6243;SDS011;3155;49.940;8.450;2023-03-20T00:24:16;0.80;;;0.50;;
6243;SDS011;3155;49.940;8.450;2023-03-20T00:26:43;0.30;;;0.30;;
6243;SDS011;3155;49.940;8.450;2023-03-20T00:29:17;0.70;;;0.70;;
6243;SDS011;3155;49.940;8.450;2023-03-20T00:31:45;0.20;;;0.20;;
6243;SDS011;3155;49.940;8.450;2023-03-20T00:34:20;1.10;;;0.40;;
6243;SDS011;3155;49.940;8.450;2023-03-20T00:36:49;0.57;;;0.57;;
6243;SDS011;3155;49.940;8.450;2023-03-20T00:39:16;0.60;;;0.60;;
6243;SDS011;3155;49.940;8.450;2023-03-20T00:41:46;0.30;;;0.30;;
6243;SDS011;3155;49.940;8.450;2023-03-20T00:46:56;0.38;;;0.38;;
6243;SDS011;3155;49.940;8.450;2023-03-20T00:49:27;0.43;;;0.43;;
6243;SDS011;3155;49.940;8.450;2023-03-20T00:51:58;0.43;;;0.43;;
6243;SDS011;3155;49.940;8.450;2023-03-20T00:54:27;1.00;;;0.50;;
6243;SDS011;3155;49.940;8.450;2023-03-20T00:59:32;0.40;;;0.40;;
6243;SDS011;3155;49.940;8.450;2023-03-20T01:02:11;0.43;;;0.43;;
6243;SDS011;3155;49.940;8.450;2023-03-20T01:04:41;0.45;;;0.45;;
6243;SDS011;3155;49.940;8.450;2023-03-20T01:07:11;0.40;;;0.40;;
6243;SDS011;3155;49.940;8.450;2023-03-20T01:09:40;2.10;;;0.65;;
6243;SDS011;3155;49.940;8.450;2023-03-20T01:12:09;0.30;;;0.30;;
6243;SDS011;3155;49.940;8.450;2023-03-20T01:14:37;0.50;;;0.50;;
6243;SDS011;3155;49.940;8.450;2023-03-20T01:17:04;0.70;;;0.70;;
6243;SDS011;3155;49.940;8.450;2023-03-20T01:19:33;0.43;;;0.43;;
6243;SDS011;3155;49.940;8.450;2023-03-20T01:22:01;0.20;;;0.20;;
6243;SDS011;3155;49.940;8.450;2023-03-20T01:24:28;0.60;;;0.60;;
6243;SDS011;3155;49.940;8.450;2023-03-20T01:26:55;0.35;;;0.35;;
6243;SDS011;3155;49.940;8.450;2023-03-20T01:29:23;0.80;;;0.50;;
6243;SDS011;3155;49.940;8.450;2023-03-20T01:31:52;0.60;;;0.60;;
6243;SDS011;3155;49.940;8.450;2023-03-20T01:34:19;0.95;;;0.85;;
6243;SDS011;3155;49.940;8.450;2023-03-20T01:36:48;0.47;;;0.47;;
6243;SDS011;3155;49.940;8.450;2023-03-20T01:39:15;1.70;;;0.82;;
6243;SDS011;3155;49.940;8.450;2023-03-20T01:41:46;0.73;;;0.73;;
6243;SDS011;3155;49.940;8.450;2023-03-20T01:44:18;0.50;;;0.50;;
6243;SDS011;3155;49.940;8.450;2023-03-20T01:46:53;0.40;;;0.40;;
6243;SDS011;3155;49.940;8.450;2023-03-20T01:51:47;0.65;;;0.65;;
6243;SDS011;3155;49.940;8.450;2023-03-20T01:57:07;1.90;;;0.40;;
6243;SDS011;3155;49.940;8.450;2023-03-20T01:59:41;0.75;;;0.75;;
6243;SDS011;3155;49.940;8.450;2023-03-20T02:02:18;0.60;;;0.52;;
6243;SDS011;3155;49.940;8.450;2023-03-20T02:04:49;0.40;;;0.40;;
6243;SDS011;3155;49.940;8.450;2023-03-20T02:07:21;0.70;;;0.70;;
6243;SDS011;3155;49.940;8.450;2023-03-20T02:09:49;0.20;;;0.20;;
6243;SDS011;3155;49.940;8.450;2023-03-20T02:12:26;0.40;;;0.40;;
6243;SDS011;3155;49.940;8.450;2023-03-20T02:14:53;0.73;;;0.73;;
6243;SDS011;3155;49.940;8.450;2023-03-20T02:17:21;0.70;;;0.57;;
6243;SDS011;3155;49.940;8.450;2023-03-20T02:23:01;0.63;;;0.63;;
6243;SDS011;3155;49.940;8.450;2023-03-20T02:28:36;0.57;;;0.57;;
6243;SDS011;3155;49.940;8.450;2023-03-20T02:50:40;0.70;;;0.70;;
6243;SDS011;3155;49.940;8.450;2023-03-20T02:53:28;1.48;;;1.38;;
6243;SDS011;3155;49.940;8.450;2023-03-20T02:57:00;1.23;;;1.13;;
6243;SDS011;3155;49.940;8.450;2023-03-20T03:02:17;1.63;;;0.80;;
6243;SDS011;3155;49.940;8.450;2023-03-20T03:04:53;1.23;;;1.20;;
6243;SDS011;3155;49.940;8.450;2023-03-20T03:07:24;1.88;;;1.50;;
6243;SDS011;3155;49.940;8.450;2023-03-20T03:12:38;1.60;;;0.87;;
6243;SDS011;3155;49.940;8.450;2023-03-20T03:18:06;0.90;;;0.70;;
6243;SDS011;3155;49.940;8.450;2023-03-20T03:20:40;0.63;;;0.63;;
6243;SDS011;3155;49.940;8.450;2023-03-20T03:23:09;0.80;;;0.80;;
6243;SDS011;3155;49.940;8.450;2023-03-20T03:25:45;2.27;;;0.83;;
6243;SDS011;3155;49.940;8.450;2023-03-20T03:28:25;0.75;;;0.70;;
6243;SDS011;3155;49.940;8.450;2023-03-20T03:31:04;1.30;;;1.05;;
6243;SDS011;3155;49.940;8.450;2023-03-20T03:33:35;0.93;;;0.93;;
6243;SDS011;3155;49.940;8.450;2023-03-20T03:49:25;5.30;;;0.88;;
6243;SDS011;3155;49.940;8.450;2023-03-20T03:51:57;1.37;;;1.10;;
6243;SDS011;3155;49.940;8.450;2023-03-20T03:54:37;1.83;;;1.08;;
6243;SDS011;3155;49.940;8.450;2023-03-20T03:57:05;1.20;;;1.20;;
6243;SDS011;3155;49.940;8.450;2023-03-20T03:59:40;1.40;;;1.30;;
6243;SDS011;3155;49.940;8.450;2023-03-20T04:02:12;1.50;;;1.40;;
6243;SDS011;3155;49.940;8.450;2023-03-20T04:04:42;1.77;;;1.35;;
6243;SDS011;3155;49.940;8.450;2023-03-20T04:07:12;1.70;;;0.98;;
6243;SDS011;3155;49.940;8.450;2023-03-20T04:09:39;1.38;;;1.27;;
6243;SDS011;3155;49.940;8.450;2023-03-20T04:12:10;1.10;;;1.10;;
6243;SDS011;3155;49.940;8.450;2023-03-20T04:15:03;1.17;;;1.08;;
6243;SDS011;3155;49.940;8.450;2023-03-20T04:17:30;1.58;;;1.52;;
6243;SDS011;3155;49.940;8.450;2023-03-20T04:19:57;1.60;;;1.50;;
6243;SDS011;3155;49.940;8.450;2023-03-20T04:22:24;1.27;;;1.23;;
6243;SDS011;3155;49.940;8.450;2023-03-20T04:24:51;1.08;;;1.08;;
6243;SDS011;3155;49.940;8.450;2023-03-20T04:27:23;1.70;;;0.90;;
6243;SDS011;3155;49.940;8.450;2023-03-20T04:29:52;1.50;;;1.00;;
6243;SDS011;3155;49.940;8.450;2023-03-20T04:32:22;3.33;;;1.80;;
6243;SDS011;3155;49.940;8.450;2023-03-20T04:34:49;1.20;;;1.10;;
6243;SDS011;3155;49.940;8.450;2023-03-20T04:37:18;1.13;;;0.98;;
6243;SDS011;3155;49.940;8.450;2023-03-20T04:39:45;1.48;;;1.38;;
6243;SDS011;3155;49.940;8.450;2023-03-20T04:42:12;1.63;;;1.27;;
6243;SDS011;3155;49.940;8.450;2023-03-20T04:44:39;0.83;;;0.83;;
6243;SDS011;3155;49.940;8.450;2023-03-20T04:47:06;1.35;;;1.35;;
6243;SDS011;3155;49.940;8.450;2023-03-20T04:49:35;2.20;;;0.90;;
6243;SDS011;3155;49.940;8.450;2023-03-20T04:52:02;2.50;;;1.60;;
6243;SDS011;3155;49.940;8.450;2023-03-20T04:54:32;1.25;;;1.15;;
6243;SDS011;3155;49.940;8.450;2023-03-20T04:56:59;1.33;;;1.10;;
6243;SDS011;3155;49.940;8.450;2023-03-20T04:59:26;0.68;;;0.68;;
6243;SDS011;3155;49.940;8.450;2023-03-20T05:01:53;1.90;;;1.23;;
6243;SDS011;3155;49.940;8.450;2023-03-20T05:04:19;2.05;;;1.63;;
6243;SDS011;3155;49.940;8.450;2023-03-20T05:06:46;1.10;;;1.02;;
6243;SDS011;3155;49.940;8.450;2023-03-20T05:09:14;2.40;;;2.17;;
6243;SDS011;3155;49.940;8.450;2023-03-20T05:11:42;1.48;;;1.00;;
6243;SDS011;3155;49.940;8.450;2023-03-20T05:14:09;2.22;;;1.67;;
6243;SDS011;3155;49.940;8.450;2023-03-20T05:16:40;1.40;;;1.13;;
6243;SDS011;3155;49.940;8.450;2023-03-20T05:19:07;1.90;;;1.15;;
6243;SDS011;3155;49.940;8.450;2023-03-20T05:21:33;2.83;;;1.40;;
6243;SDS011;3155;49.940;8.450;2023-03-20T05:24:03;1.63;;;1.52;;
6243;SDS011;3155;49.940;8.450;2023-03-20T05:26:30;1.80;;;1.70;;
6243;SDS011;3155;49.940;8.450;2023-03-20T05:28:57;1.75;;;1.30;;
6243;SDS011;3155;49.940;8.450;2023-03-20T05:31:24;1.65;;;1.55;;
6243;SDS011;3155;49.940;8.450;2023-03-20T05:33:50;1.63;;;1.53;;
6243;SDS011;3155;49.940;8.450;2023-03-20T05:36:17;2.35;;;1.67;;
6243;SDS011;3155;49.940;8.450;2023-03-20T05:38:44;1.92;;;1.73;;
6243;SDS011;3155;49.940;8.450;2023-03-20T05:41:10;1.63;;;1.45;;
6243;SDS011;3155;49.940;8.450;2023-03-20T05:43:37;1.70;;;1.25;;
6243;SDS011;3155;49.940;8.450;2023-03-20T05:46:04;1.83;;;1.73;;
6243;SDS011;3155;49.940;8.450;2023-03-20T05:48:31;2.22;;;1.50;;
6243;SDS011;3155;49.940;8.450;2023-03-20T05:50:58;1.50;;;1.40;;
6243;SDS011;3155;49.940;8.450;2023-03-20T05:53:25;4.60;;;2.45;;
6243;SDS011;3155;49.940;8.450;2023-03-20T05:55:51;3.05;;;1.85;;
6243;SDS011;3155;49.940;8.450;2023-03-20T05:58:18;0.85;;;0.85;;
6243;SDS011;3155;49.940;8.450;2023-03-20T06:00:47;2.13;;;1.30;;
6243;SDS011;3155;49.940;8.450;2023-03-20T06:03:14;1.83;;;1.73;;
6243;SDS011;3155;49.940;8.450;2023-03-20T06:05:40;1.73;;;1.63;;
6243;SDS011;3155;49.940;8.450;2023-03-20T06:08:08;1.20;;;1.15;;
6243;SDS011;3155;49.940;8.450;2023-03-20T06:10:34;1.65;;;1.55;;
6243;SDS011;3155;49.940;8.450;2023-03-20T06:13:01;1.65;;;1.42;;
6243;SDS011;3155;49.940;8.450;2023-03-20T06:15:28;3.35;;;1.98;;
6243;SDS011;3155;49.940;8.450;2023-03-20T06:17:55;2.10;;;1.40;;
6243;SDS011;3155;49.940;8.450;2023-03-20T06:20:22;1.88;;;1.77;;
6243;SDS011;3155;49.940;8.450;2023-03-20T06:22:49;1.50;;;1.42;;
6243;SDS011;3155;49.940;8.450;2023-03-20T06:25:16;1.90;;;1.00;;
6243;SDS011;3155;49.940;8.450;2023-03-20T06:27:44;2.08;;;1.77;;
6243;SDS011;3155;49.940;8.450;2023-03-20T06:30:13;1.27;;;1.17;;
6243;SDS011;3155;49.940;8.450;2023-03-20T06:32:40;1.38;;;1.23;;
6243;SDS011;3155;49.940;8.450;2023-03-20T06:35:07;1.75;;;1.40;;
6243;SDS011;3155;49.940;8.450;2023-03-20T06:37:34;1.73;;;1.63;;
6243;SDS011;3155;49.940;8.450;2023-03-20T06:40:02;1.90;;;1.50;;
6243;SDS011;3155;49.940;8.450;2023-03-20T06:42:30;1.75;;;1.50;;
6243;SDS011;3155;49.940;8.450;2023-03-20T06:44:57;1.90;;;1.27;;
6243;SDS011;3155;49.940;8.450;2023-03-20T06:47:23;1.38;;;1.27;;
6243;SDS011;3155;49.940;8.450;2023-03-20T06:49:50;2.08;;;1.45;;
6243;SDS011;3155;49.940;8.450;2023-03-20T06:52:18;1.63;;;1.52;;
6243;SDS011;3155;49.940;8.450;2023-03-20T06:54:46;2.00;;;1.00;;
6243;SDS011;3155;49.940;8.450;2023-03-20T06:57:16;3.08;;;1.95;;
6243;SDS011;3155;49.940;8.450;2023-03-20T06:59:46;2.88;;;1.33;;
6243;SDS011;3155;49.940;8.450;2023-03-20T07:02:13;1.60;;;1.50;;
6243;SDS011;3155;49.940;8.450;2023-03-20T07:04:40;2.00;;;1.90;;
6243;SDS011;3155;49.940;8.450;2023-03-20T07:07:09;2.28;;;1.63;;
6243;SDS011;3155;49.940;8.450;2023-03-20T07:09:39;1.48;;;1.38;;
6243;SDS011;3155;49.940;8.450;2023-03-20T07:12:09;1.40;;;1.30;;
6243;SDS011;3155;49.940;8.450;2023-03-20T07:14:39;3.00;;;1.50;;
6243;SDS011;3155;49.940;8.450;2023-03-20T07:17:10;1.70;;;1.58;;
6243;SDS011;3155;49.940;8.450;2023-03-20T07:19:37;2.42;;;1.52;;
6243;SDS011;3155;49.940;8.450;2023-03-20T07:22:05;2.77;;;1.37;;
6243;SDS011;3155;49.940;8.450;2023-03-20T07:24:33;1.67;;;1.58;;
6243;SDS011;3155;49.940;8.450;2023-03-20T07:27:00;1.80;;;1.70;;
6243;SDS011;3155;49.940;8.450;2023-03-20T07:29:28;2.00;;;1.83;;
6243;SDS011;3155;49.940;8.450;2023-03-20T07:31:55;3.85;;;2.30;;
6243;SDS011;3155;49.940;8.450;2023-03-20T07:34:22;1.73;;;1.63;;
6243;SDS011;3155;49.940;8.450;2023-03-20T07:36:49;4.28;;;2.05;;
6243;SDS011;3155;49.940;8.450;2023-03-20T07:39:17;2.08;;;1.95;;
6243;SDS011;3155;49.940;8.450;2023-03-20T07:41:44;2.10;;;2.00;;
6243;SDS011;3155;49.940;8.450;2023-03-20T07:44:11;1.95;;;1.30;;
6243;SDS011;3155;49.940;8.450;2023-03-20T07:46:39;2.38;;;1.88;;
6243;SDS011;3155;49.940;8.450;2023-03-20T07:49:07;1.73;;;1.60;;
6243;SDS011;3155;49.940;8.450;2023-03-20T07:51:34;3.90;;;2.15;;
6243;SDS011;3155;49.940;8.450;2023-03-20T07:54:01;5.75;;;2.22;;
6243;SDS011;3155;49.940;8.450;2023-03-20T07:56:31;3.50;;;1.70;;
6243;SDS011;3155;49.940;8.450;2023-03-20T07:58:58;1.97;;;1.57;;
6243;SDS011;3155;49.940;8.450;2023-03-20T08:01:28;4.15;;;1.75;;
6243;SDS011;3155;49.940;8.450;2023-03-20T08:03:56;2.17;;;2.08;;
6243;SDS011;3155;49.940;8.450;2023-03-20T08:06:26;4.40;;;2.17;;
6243;SDS011;3155;49.940;8.450;2023-03-20T08:08:53;1.23;;;1.23;;
6243;SDS011;3155;49.940;8.450;2023-03-20T08:11:21;2.95;;;2.38;;
6243;SDS011;3155;49.940;8.450;2023-03-20T08:13:48;1.90;;;1.73;;
6243;SDS011;3155;49.940;8.450;2023-03-20T08:16:15;2.13;;;2.03;;
6243;SDS011;3155;49.940;8.450;2023-03-20T08:18:42;0.98;;;0.95;;
6243;SDS011;3155;49.940;8.450;2023-03-20T08:21:09;3.00;;;1.92;;
6243;SDS011;3155;49.940;8.450;2023-03-20T08:23:37;2.03;;;1.60;;
6243;SDS011;3155;49.940;8.450;2023-03-20T08:26:04;6.27;;;1.90;;
6243;SDS011;3155;49.940;8.450;2023-03-20T08:28:36;4.03;;;2.95;;
6243;SDS011;3155;49.940;8.450;2023-03-20T08:31:13;4.13;;;2.93;;
6243;SDS011;3155;49.940;8.450;2023-03-20T08:33:43;3.22;;;2.72;;
6243;SDS011;3155;49.940;8.450;2023-03-20T08:36:11;4.25;;;2.55;;
6243;SDS011;3155;49.940;8.450;2023-03-20T08:38:44;3.55;;;2.38;;
6243;SDS011;3155;49.940;8.450;2023-03-20T08:41:16;4.63;;;2.67;;
6243;SDS011;3155;49.940;8.450;2023-03-20T08:43:43;4.70;;;3.03;;
6243;SDS011;3155;49.940;8.450;2023-03-20T08:46:11;3.17;;;2.67;;
6243;SDS011;3155;49.940;8.450;2023-03-20T08:48:38;4.88;;;3.33;;
6243;SDS011;3155;49.940;8.450;2023-03-20T08:51:05;5.27;;;4.00;;
6243;SDS011;3155;49.940;8.450;2023-03-20T08:53:32;7.68;;;4.53;;
6243;SDS011;3155;49.940;8.450;2023-03-20T08:56:02;7.25;;;3.38;;
6243;SDS011;3155;49.940;8.450;2023-03-20T08:58:29;7.38;;;4.30;;
6243;SDS011;3155;49.940;8.450;2023-03-20T09:01:01;8.02;;;4.30;;
6243;SDS011;3155;49.940;8.450;2023-03-20T09:03:35;5.95;;;4.20;;
6243;SDS011;3155;49.940;8.450;2023-03-20T09:06:05;4.82;;;2.88;;
6243;SDS011;3155;49.940;8.450;2023-03-20T09:08:34;6.90;;;4.10;;
6243;SDS011;3155;49.940;8.450;2023-03-20T09:11:01;8.82;;;5.15;;
6243;SDS011;3155;49.940;8.450;2023-03-20T09:13:30;8.18;;;4.43;;
6243;SDS011;3155;49.940;8.450;2023-03-20T09:15:57;7.50;;;4.15;;
6243;SDS011;3155;49.940;8.450;2023-03-20T09:18:24;7.38;;;5.00;;
6243;SDS011;3155;49.940;8.450;2023-03-20T09:20:51;10.90;;;4.83;;
6243;SDS011;3155;49.940;8.450;2023-03-20T09:23:18;6.53;;;4.63;;
6243;SDS011;3155;49.940;8.450;2023-03-20T09:25:45;8.70;;;5.07;;
6243;SDS011;3155;49.940;8.450;2023-03-20T09:28:12;10.43;;;5.43;;
6243;SDS011;3155;49.940;8.450;2023-03-20T09:30:43;8.85;;;6.03;;
6243;SDS011;3155;49.940;8.450;2023-03-20T09:33:11;3.90;;;3.50;;
6243;SDS011;3155;49.940;8.450;2023-03-20T09:35:40;9.73;;;5.20;;
6243;SDS011;3155;49.940;8.450;2023-03-20T09:38:09;7.95;;;3.38;;
6243;SDS011;3155;49.940;8.450;2023-03-20T09:43:35;12.87;;;4.57;;
6243;SDS011;3155;49.940;8.450;2023-03-20T09:46:00;5.38;;;3.75;;
6243;SDS011;3155;49.940;8.450;2023-03-20T09:48:40;4.32;;;2.83;;
6243;SDS011;3155;49.940;8.450;2023-03-20T09:53:58;4.97;;;3.05;;
6243;SDS011;3155;49.940;8.450;2023-03-20T09:56:32;2.53;;;2.33;;
6243;SDS011;3155;49.940;8.450;2023-03-20T09:59:00;2.80;;;1.67;;
6243;SDS011;3155;49.940;8.450;2023-03-20T10:01:51;1.95;;;1.83;;
6243;SDS011;3155;49.940;8.450;2023-03-20T10:04:16;5.47;;;1.55;;
6243;SDS011;3155;49.940;8.450;2023-03-20T10:06:43;2.72;;;1.60;;
6243;SDS011;3155;49.940;8.450;2023-03-20T10:09:12;2.15;;;1.45;;
6243;SDS011;3155;49.940;8.450;2023-03-20T10:14:32;2.35;;;1.90;;
6243;SDS011;3155;49.940;8.450;2023-03-20T10:22:47;3.13;;;2.05;;
6243;SDS011;3155;49.940;8.450;2023-03-20T10:25:22;3.70;;;2.27;;
6243;SDS011;3155;49.940;8.450;2023-03-20T10:28:10;2.50;;;2.25;;
6243;SDS011;3155;49.940;8.450;2023-03-20T10:41:36;3.13;;;2.37;;
6243;SDS011;3155;49.940;8.450;2023-03-20T10:44:09;5.57;;;2.10;;
6243;SDS011;3155;49.940;8.450;2023-03-20T10:46:44;5.28;;;1.80;;
6243;SDS011;3155;49.940;8.450;2023-03-20T10:49:17;3.33;;;2.03;;
6243;SDS011;3155;49.940;8.450;2023-03-20T10:51:55;2.92;;;2.53;;
6243;SDS011;3155;49.940;8.450;2023-03-20T10:54:27;4.13;;;2.33;;
6243;SDS011;3155;49.940;8.450;2023-03-20T10:56:58;4.57;;;2.50;;
6243;SDS011;3155;49.940;8.450;2023-03-20T10:59:33;4.68;;;3.10;;
6243;SDS011;3155;49.940;8.450;2023-03-20T11:02:15;2.92;;;2.08;;
6243;SDS011;3155;49.940;8.450;2023-03-20T11:04:44;3.17;;;1.90;;
6243;SDS011;3155;49.940;8.450;2023-03-20T11:07:31;3.92;;;1.98;;
6243;SDS011;3155;49.940;8.450;2023-03-20T11:12:43;2.35;;;2.10;;
6243;SDS011;3155;49.940;8.450;2023-03-20T11:17:52;3.50;;;2.75;;
6243;SDS011;3155;49.940;8.450;2023-03-20T11:20:31;4.50;;;2.23;;
6243;SDS011;3155;49.940;8.450;2023-03-20T11:23:22;4.45;;;1.95;;
6243;SDS011;3155;49.940;8.450;2023-03-20T11:25:56;2.72;;;2.13;;
6243;SDS011;3155;49.940;8.450;2023-03-20T11:28:35;5.38;;;2.25;;
6243;SDS011;3155;49.940;8.450;2023-03-20T11:33:49;3.03;;;2.33;;
6243;SDS011;3155;49.940;8.450;2023-03-20T11:36:25;2.65;;;2.03;;
6243;SDS011;3155;49.940;8.450;2023-03-20T11:39:00;3.08;;;2.08;;
6243;SDS011;3155;49.940;8.450;2023-03-20T11:41:52;2.58;;;2.20;;
6243;SDS011;3155;49.940;8.450;2023-03-20T11:47:02;2.53;;;1.95;;
6243;SDS011;3155;49.940;8.450;2023-03-20T11:49:31;2.75;;;1.50;;
6243;SDS011;3155;49.940;8.450;2023-03-20T11:52:11;3.25;;;2.13;;
6243;SDS011;3155;49.940;8.450;2023-03-20T11:54:47;2.00;;;1.90;;
6243;SDS011;3155;49.940;8.450;2023-03-20T11:57:36;1.85;;;1.67;;
6243;SDS011;3155;49.940;8.450;2023-03-20T12:00:11;1.77;;;1.67;;
6243;SDS011;3155;49.940;8.450;2023-03-20T12:03:33;6.77;;;1.70;;
6243;SDS011;3155;49.940;8.450;2023-03-20T12:06:06;0.98;;;0.93;;
6243;SDS011;3155;49.940;8.450;2023-03-20T12:08:38;1.35;;;1.25;;
6243;SDS011;3155;49.940;8.450;2023-03-20T12:11:43;0.90;;;0.65;;
6243;SDS011;3155;49.940;8.450;2023-03-20T12:14:35;0.60;;;0.60;;
6243;SDS011;3155;49.940;8.450;2023-03-20T12:17:20;0.73;;;0.73;;
6243;SDS011;3155;49.940;8.450;2023-03-20T12:19:53;0.40;;;0.40;;
6243;SDS011;3155;49.940;8.450;2023-03-20T12:22:25;2.30;;;0.65;;
6243;SDS011;3155;49.940;8.450;2023-03-20T12:27:42;0.43;;;0.43;;
6243;SDS011;3155;49.940;8.450;2023-03-20T12:30:13;0.38;;;0.38;;
6243;SDS011;3155;49.940;8.450;2023-03-20T12:32:51;0.43;;;0.43;;
6243;SDS011;3155;49.940;8.450;2023-03-20T12:35:27;1.10;;;0.63;;
6243;SDS011;3155;49.940;8.450;2023-03-20T12:37:54;1.60;;;0.73;;
6243;SDS011;3155;49.940;8.450;2023-03-20T12:40:23;0.80;;;0.80;;
6243;SDS011;3155;49.940;8.450;2023-03-20T12:43:07;0.45;;;0.45;;
6243;SDS011;3155;49.940;8.450;2023-03-20T12:45:38;0.60;;;0.60;;
6243;SDS011;3155;49.940;8.450;2023-03-20T12:48:23;0.50;;;0.45;;
6243;SDS011;3155;49.940;8.450;2023-03-20T12:54:18;1.60;;;0.57;;
6243;SDS011;3155;49.940;8.450;2023-03-20T12:59:17;0.40;;;0.40;;
6243;SDS011;3155;49.940;8.450;2023-03-20T13:07:12;0.50;;;0.50;;
6243;SDS011;3155;49.940;8.450;2023-03-20T13:09:54;0.57;;;0.57;;
6243;SDS011;3155;49.940;8.450;2023-03-20T13:12:41;0.63;;;0.63;;
6243;SDS011;3155;49.940;8.450;2023-03-20T13:18:18;0.70;;;0.70;;
6243;SDS011;3155;49.940;8.450;2023-03-20T13:20:55;0.90;;;0.90;;
6243;SDS011;3155;49.940;8.450;2023-03-20T13:23:29;0.80;;;0.80;;
6243;SDS011;3155;49.940;8.450;2023-03-20T13:26:07;0.38;;;0.38;;
6243;SDS011;3155;49.940;8.450;2023-03-20T13:37:48;0.80;;;0.80;;
6243;SDS011;3155;49.940;8.450;2023-03-20T13:39:59;1.05;;;0.77;;
6243;SDS011;3155;49.940;8.450;2023-03-20T13:42:30;0.63;;;0.63;;
6243;SDS011;3155;49.940;8.450;2023-03-20T13:45:24;1.50;;;0.55;;
6243;SDS011;3155;49.940;8.450;2023-03-20T13:47:59;1.13;;;0.70;;
6243;SDS011;3155;49.940;8.450;2023-03-20T13:50:50;3.63;;;0.73;;
6243;SDS011;3155;49.940;8.450;2023-03-20T13:53:56;1.20;;;1.10;;
6243;SDS011;3155;49.940;8.450;2023-03-20T14:04:49;0.70;;;0.50;;
6243;SDS011;3155;49.940;8.450;2023-03-20T14:07:27;0.80;;;0.80;;
6243;SDS011;3155;49.940;8.450;2023-03-20T14:12:48;0.80;;;0.80;;
6243;SDS011;3155;49.940;8.450;2023-03-20T14:15:18;2.65;;;0.88;;
6243;SDS011;3155;49.940;8.450;2023-03-20T14:17:46;0.70;;;0.70;;
6243;SDS011;3155;49.940;8.450;2023-03-20T14:20:28;0.68;;;0.68;;
6243;SDS011;3155;49.940;8.450;2023-03-20T14:22:58;0.50;;;0.50;;
6243;SDS011;3155;49.940;8.450;2023-03-20T14:25:28;0.93;;;0.60;;
6243;SDS011;3155;49.940;8.450;2023-03-20T14:28:04;0.70;;;0.60;;
6243;SDS011;3155;49.940;8.450;2023-03-20T14:30:36;0.57;;;0.57;;
6243;SDS011;3155;49.940;8.450;2023-03-20T14:36:41;0.70;;;0.70;;
6243;SDS011;3155;49.940;8.450;2023-03-20T14:46:39;2.25;;;0.75;;
6243;SDS011;3155;49.940;8.450;2023-03-20T14:50:13;0.70;;;0.70;;
6243;SDS011;3155;49.940;8.450;2023-03-20T14:54:54;0.93;;;0.70;;
6243;SDS011;3155;49.940;8.450;2023-03-20T14:57:32;0.95;;;0.85;;
6243;SDS011;3155;49.940;8.450;2023-03-20T15:00:26;1.70;;;0.80;;
6243;SDS011;3155;49.940;8.450;2023-03-20T15:03:05;3.03;;;0.50;;
6243;SDS011;3155;49.940;8.450;2023-03-20T15:05:36;1.00;;;0.80;;
6243;SDS011;3155;49.940;8.450;2023-03-20T15:08:20;0.47;;;0.47;;
6243;SDS011;3155;49.940;8.450;2023-03-20T15:10:50;0.90;;;0.40;;
6243;SDS011;3155;49.940;8.450;2023-03-20T15:13:25;0.90;;;0.70;;
6243;SDS011;3155;49.940;8.450;2023-03-20T15:15:57;0.70;;;0.50;;
6243;SDS011;3155;49.940;8.450;2023-03-20T15:18:25;0.73;;;0.73;;
6243;SDS011;3155;49.940;8.450;2023-03-20T15:20:55;0.60;;;0.60;;
6243;SDS011;3155;49.940;8.450;2023-03-20T15:23:23;1.80;;;0.73;;
6243;SDS011;3155;49.940;8.450;2023-03-20T15:25:51;1.67;;;0.40;;
6243;SDS011;3155;49.940;8.450;2023-03-20T15:28:19;0.90;;;0.90;;
6243;SDS011;3155;49.940;8.450;2023-03-20T15:30:51;0.63;;;0.50;;
6243;SDS011;3155;49.940;8.450;2023-03-20T15:33:25;0.35;;;0.35;;
6243;SDS011;3155;49.940;8.450;2023-03-20T15:35:55;0.43;;;0.40;;
6243;SDS011;3155;49.940;8.450;2023-03-20T15:38:32;0.60;;;0.60;;
6243;SDS011;3155;49.940;8.450;2023-03-20T15:41:04;1.10;;;0.47;;
6243;SDS011;3155;49.940;8.450;2023-03-20T15:43:32;0.50;;;0.50;;
6243;SDS011;3155;49.940;8.450;2023-03-20T15:46:00;1.00;;;0.50;;
6243;SDS011;3155;49.940;8.450;2023-03-20T15:48:46;0.80;;;0.70;;
6243;SDS011;3155;49.940;8.450;2023-03-20T15:51:14;0.50;;;0.50;;
6243;SDS011;3155;49.940;8.450;2023-03-20T15:53:43;0.40;;;0.30;;
6243;SDS011;3155;49.940;8.450;2023-03-20T15:56:13;0.60;;;0.60;;
6243;SDS011;3155;49.940;8.450;2023-03-20T15:58:45;0.68;;;0.60;;
6243;SDS011;3155;49.940;8.450;2023-03-20T16:01:16;1.00;;;0.57;;
6243;SDS011;3155;49.940;8.450;2023-03-20T16:03:45;0.50;;;0.50;;
6243;SDS011;3155;49.940;8.450;2023-03-20T16:06:15;0.65;;;0.65;;
6243;SDS011;3155;49.940;8.450;2023-03-20T16:08:54;0.57;;;0.52;;
6243;SDS011;3155;49.940;8.450;2023-03-20T16:11:23;0.57;;;0.50;;
6243;SDS011;3155;49.940;8.450;2023-03-20T16:13:50;0.60;;;0.60;;
6243;SDS011;3155;49.940;8.450;2023-03-20T16:16:20;4.82;;;0.65;;
6243;SDS011;3155;49.940;8.450;2023-03-20T16:18:49;0.65;;;0.65;;
6243;SDS011;3155;49.940;8.450;2023-03-20T16:23:50;0.38;;;0.38;;
6243;SDS011;3155;49.940;8.450;2023-03-20T16:26:19;0.60;;;0.60;;
6243;SDS011;3155;49.940;8.450;2023-03-20T16:28:48;0.63;;;0.60;;
6243;SDS011;3155;49.940;8.450;2023-03-20T16:33:46;0.50;;;0.50;;
6243;SDS011;3155;49.940;8.450;2023-03-20T16:36:18;0.35;;;0.32;;
6243;SDS011;3155;49.940;8.450;2023-03-20T16:38:55;0.70;;;0.57;;
6243;SDS011;3155;49.940;8.450;2023-03-20T16:41:38;0.80;;;0.80;;
6243;SDS011;3155;49.940;8.450;2023-03-20T16:44:11;1.10;;;0.40;;
6243;SDS011;3155;49.940;8.450;2023-03-20T16:46:55;0.80;;;0.63;;
6243;SDS011;3155;49.940;8.450;2023-03-20T16:52:03;0.60;;;0.60;;
6243;SDS011;3155;49.940;8.450;2023-03-20T16:54:35;0.50;;;0.50;;
6243;SDS011;3155;49.940;8.450;2023-03-20T16:57:03;0.70;;;0.70;;
6243;SDS011;3155;49.940;8.450;2023-03-20T16:59:37;0.40;;;0.40;;
6243;SDS011;3155;49.940;8.450;2023-03-20T17:02:39;0.40;;;0.40;;
6243;SDS011;3155;49.940;8.450;2023-03-20T17:05:04;0.50;;;0.50;;
6243;SDS011;3155;49.940;8.450;2023-03-20T17:07:40;0.50;;;0.50;;
6243;SDS011;3155;49.940;8.450;2023-03-20T17:12:47;0.85;;;0.65;;
6243;SDS011;3155;49.940;8.450;2023-03-20T17:15:23;6.05;;;0.70;;
6243;SDS011;3155;49.940;8.450;2023-03-20T17:17:50;0.50;;;0.50;;
6243;SDS011;3155;49.940;8.450;2023-03-20T17:22:49;0.50;;;0.40;;
6243;SDS011;3155;49.940;8.450;2023-03-20T17:25:16;0.88;;;0.80;;
6243;SDS011;3155;49.940;8.450;2023-03-20T17:27:46;0.40;;;0.40;;
6243;SDS011;3155;49.940;8.450;2023-03-20T17:32:41;0.50;;;0.50;;
6243;SDS011;3155;49.940;8.450;2023-03-20T17:35:11;0.47;;;0.47;;
6243;SDS011;3155;49.940;8.450;2023-03-20T17:37:39;0.30;;;0.30;;
6243;SDS011;3155;49.940;8.450;2023-03-20T17:40:09;0.43;;;0.43;;
6243;SDS011;3155;49.940;8.450;2023-03-20T17:42:41;0.50;;;0.50;;
6243;SDS011;3155;49.940;8.450;2023-03-20T17:45:11;0.50;;;0.50;;
6243;SDS011;3155;49.940;8.450;2023-03-20T17:47:39;0.40;;;0.40;;
6243;SDS011;3155;49.940;8.450;2023-03-20T17:50:17;0.70;;;0.70;;
6243;SDS011;3155;49.940;8.450;2023-03-20T17:52:46;0.30;;;0.30;;
6243;SDS011;3155;49.940;8.450;2023-03-20T17:55:12;0.38;;;0.38;;
6243;SDS011;3155;49.940;8.450;2023-03-20T17:57:41;0.47;;;0.47;;
6243;SDS011;3155;49.940;8.450;2023-03-20T18:00:12;0.32;;;0.32;;
6243;SDS011;3155;49.940;8.450;2023-03-20T18:02:47;0.40;;;0.40;;
6243;SDS011;3155;49.940;8.450;2023-03-20T18:05:14;0.95;;;0.30;;
6243;SDS011;3155;49.940;8.450;2023-03-20T18:07:41;1.08;;;0.30;;
6243;SDS011;3155;49.940;8.450;2023-03-20T18:10:18;1.30;;;0.50;;
6243;SDS011;3155;49.940;8.450;2023-03-20T18:12:46;0.75;;;0.45;;
6243;SDS011;3155;49.940;8.450;2023-03-20T18:15:13;0.43;;;0.43;;
6243;SDS011;3155;49.940;8.450;2023-03-20T18:17:43;0.43;;;0.43;;
6243;SDS011;3155;49.940;8.450;2023-03-20T18:20:15;0.30;;;0.30;;
6243;SDS011;3155;49.940;8.450;2023-03-20T18:22:48;0.65;;;0.65;;